Clarksville, OH (45113)

9:41 AM EDT on July 27, 2016 (GMT -0400)
Country Manor | | Change Station

Elev 1004 ft 39.44 °N, 83.90 °W | Updated 19 seconds ago

Clear
Clear
77.5 °F
Feels Like 79 °F
N
3.0
Wind Variable Wind from WSW
Gusts 4.0 mph

Today
High -- | Low -- °F
--% Chance of Precip.
Yesterday
High -- | Low -- °F
Precip. -- in
Pressure 30.00 in
Visibility 10.0 miles
Clouds Clear
Heat Index 79 °F
Dew Point 74 °F
Humidity 88%
Rainfall 0.00 in
Snow Depth Not available.
6:31 AM 8:52 PM
Last Quarter, 43% visible
METAR KILN 271254Z AUTO 29004KT 10SM CLR 26/23 A3004 RMK AO2 SLP159 T02610228
Pressure 30.00 in
Visibility 10.0 miles
Clouds Clear
Heat Index 79 °F
Dew Point 74 °F
Humidity 88%
Rainfall 0.00 in
Snow Depth Not available.
6:31 AM 8:52 PM
Last Quarter, 43% visible
METAR KILN 271254Z AUTO 29004KT 10SM CLR 26/23 A3004 RMK AO2 SLP159 T02610228

10-Day Weather Forecast

Almanac

Astronomy

Jul. 27, 2016 Rise Set
Actual Time
Civil Twilight
Nautical Twilight
Astronomical Twilight
Moon
Length of Visible Light
Length of Day
Tomorrow will be .
, % of the Moon is Illuminated

Today's Extremes

State Highs State Lows

Community

WunderPhotos

Upload Photos

1,927,844 photos uploaded!

WunderBlog® & News

Nearby

Air Quality

  Air Quality AQ Index Pollutant
Not available.

Snow Depth

Station Depth Elevation

Earthquake Activity

City Distance Mag. Time & Date
Minimum magnitude displayed is 2.5.

Coastal Water Temperatures

Place Temperature

Stations

Nearby Weather Stations

Station Location Temp. Windchill Dew Point Humidity Wind Precip. Elev Updated Type
                   

Watches & Warnings

There are currently no watches in effect.